createdAt,value
2018-08-10T00:04:00.284Z,18.50
2018-08-10T00:08:03.475Z,18.50
2018-08-10T00:12:06.560Z,18.40
2018-08-10T00:16:09.720Z,18.30
2018-08-10T00:20:14.567Z,18.30
2018-08-10T00:24:17.714Z,18.20
2018-08-10T00:28:20.783Z,18.20
2018-08-10T00:32:24.516Z,18.20
2018-08-10T00:36:27.588Z,18.10
2018-08-10T00:40:30.692Z,18.10
2018-08-10T00:44:33.779Z,18.00
2018-08-10T00:48:36.997Z,18.00
2018-08-10T00:52:40.195Z,18.00
2018-08-10T00:56:43.428Z,17.90
2018-08-10T01:00:46.624Z,17.90
2018-08-10T01:04:49.755Z,18.00
2018-08-10T01:08:52.842Z,18.00
2018-08-10T01:12:55.971Z,18.00
2018-08-10T01:16:59.048Z,17.90
2018-08-10T01:21:02.256Z,17.90
2018-08-10T01:25:05.344Z,17.90
2018-08-10T01:29:08.556Z,17.90
2018-08-10T01:33:11.627Z,17.90
2018-08-10T01:37:14.746Z,17.90
2018-08-10T01:41:17.852Z,18.00
2018-08-10T01:45:20.987Z,18.00
2018-08-10T01:49:24.079Z,17.90
2018-08-10T01:53:27.204Z,17.90
2018-08-10T01:57:30.288Z,17.80
2018-08-10T02:01:33.791Z,17.80
2018-08-10T02:05:36.860Z,17.70
2018-08-10T02:09:40.087Z,17.70
2018-08-10T02:13:43.164Z,17.60
2018-08-10T02:17:46.308Z,17.60
2018-08-10T02:21:49.377Z,17.50
2018-08-10T02:25:52.588Z,17.50
2018-08-10T02:29:55.973Z,17.30
2018-08-10T02:33:59.071Z,17.30
2018-08-10T02:38:02.206Z,17.20
2018-08-10T02:42:05.525Z,17.10
2018-08-10T02:46:08.876Z,17.10
2018-08-10T02:50:11.955Z,17.00
2018-08-10T02:54:15.163Z,16.90
2018-08-10T02:58:18.256Z,16.80
2018-08-10T03:02:21.400Z,16.70
2018-08-10T03:06:24.471Z,16.60
2018-08-10T03:10:27.692Z,16.60
2018-08-10T03:14:30.771Z,16.60
2018-08-10T03:18:33.903Z,16.60
2018-08-10T03:22:36.999Z,16.60
2018-08-10T03:26:40.286Z,16.60
2018-08-10T03:30:43.367Z,16.70
2018-08-10T03:34:46.482Z,16.60
2018-08-10T03:38:49.547Z,16.60
2018-08-10T03:42:52.652Z,16.60
2018-08-10T03:46:55.816Z,16.60
2018-08-10T03:50:59.015Z,16.60
2018-08-10T03:55:02.089Z,16.60
2018-08-10T03:59:05.312Z,16.60
2018-08-10T04:03:08.407Z,16.60
2018-08-10T04:07:11.605Z,16.60
2018-08-10T04:11:14.684Z,16.60
2018-08-10T04:15:17.880Z,16.50
2018-08-10T04:19:20.976Z,16.50
2018-08-10T04:23:24.148Z,16.50
2018-08-10T04:27:27.220Z,16.50
2018-08-10T04:31:30.431Z,16.50
2018-08-10T04:35:33.511Z,16.50
2018-08-10T04:39:36.708Z,16.50
2018-08-10T04:43:39.809Z,16.40
2018-08-10T04:47:48.511Z,16.40
2018-08-10T04:51:51.588Z,16.30
2018-08-10T04:55:54.808Z,16.20
2018-08-10T04:59:57.883Z,16.20
2018-08-10T05:04:01.020Z,16.30
2018-08-10T05:08:04.101Z,16.30
2018-08-10T05:12:07.205Z,16.40
2018-08-10T05:16:10.292Z,16.40
2018-08-10T05:20:13.415Z,16.50
2018-08-10T05:24:16.486Z,16.60
2018-08-10T05:28:19.776Z,16.60
2018-08-10T05:32:23.055Z,16.60
2018-08-10T05:36:26.185Z,16.60
2018-08-10T05:40:29.745Z,16.60
2018-08-10T05:44:32.940Z,16.60
2018-08-10T05:48:38.138Z,16.80
2018-08-10T05:52:41.252Z,17.10
2018-08-10T05:56:44.320Z,17.20
2018-08-10T06:00:47.430Z,17.20
2018-08-10T06:04:50.505Z,17.20
2018-08-10T06:08:53.715Z,17.20
2018-08-10T06:12:56.796Z,17.20
2018-08-10T06:16:59.898Z,17.30
2018-08-10T06:21:02.968Z,17.40
2018-08-10T06:25:06.533Z,17.40
2018-08-10T06:29:09.551Z,17.30
2018-08-10T06:33:12.687Z,17.30
2018-08-10T06:37:15.786Z,17.30
2018-08-10T06:41:19.000Z,17.50
2018-08-10T06:45:22.234Z,18.00
2018-08-10T06:49:25.408Z,20.60
2018-08-10T06:53:28.507Z,23.20
2018-08-10T06:57:31.697Z,24.90
2018-08-10T07:01:34.802Z,25.60
2018-08-10T07:09:40.807Z,26.20
2018-08-10T07:13:43.988Z,25.40
2018-08-10T07:17:46.984Z,25.00
2018-08-10T07:21:50.088Z,24.30
2018-08-10T07:25:53.163Z,23.90
2018-08-10T07:29:56.340Z,23.80
2018-08-10T07:33:59.409Z,23.40
2018-08-10T07:38:02.622Z,23.60
2018-08-10T07:46:08.744Z,24.30
2018-08-10T07:50:12.144Z,24.70
2018-08-10T07:54:15.232Z,24.80
2018-08-10T07:58:18.301Z,24.60
2018-08-10T08:02:21.500Z,24.40
2018-08-10T08:06:24.572Z,24.20
2018-08-10T08:10:28.004Z,24.10
2018-08-10T08:14:31.024Z,24.10
2018-08-10T08:26:40.476Z,23.90
2018-08-10T08:39:03.499Z,23.50
2018-08-10T08:47:09.560Z,23.40
2018-08-10T08:51:15.564Z,23.40
2018-08-10T08:55:27.120Z,23.50
2018-08-10T09:03:44.656Z,23.50
2018-08-10T09:11:50.640Z,23.10
2018-08-10T09:19:56.740Z,22.90
2018-08-10T09:23:59.873Z,22.70
2018-08-10T09:32:06.107Z,22.40
2018-08-10T09:36:09.187Z,22.40
2018-08-10T09:40:14.601Z,22.50
2018-08-10T09:44:17.848Z,22.60
2018-08-10T09:48:21.072Z,22.60
2018-08-10T09:52:24.360Z,22.60
2018-08-10T09:56:27.468Z,22.60
2018-08-10T10:00:35.842Z,22.70
2018-08-10T10:08:41.909Z,22.70
2018-08-10T10:12:45.144Z,22.70
2018-08-10T10:16:48.224Z,22.80
2018-08-10T10:20:51.473Z,22.80
2018-08-10T10:24:54.511Z,23.10
2018-08-10T10:33:00.636Z,23.40
2018-08-10T10:41:06.640Z,21.90
2018-08-10T10:49:13.935Z,20.80
2018-08-10T10:53:17.235Z,20.80
2018-08-10T10:57:20.304Z,20.40
2018-08-10T11:01:23.463Z,20.20
2018-08-10T11:05:26.553Z,20.10
2018-08-10T11:09:29.667Z,20.30
2018-08-10T11:13:32.736Z,20.40
2018-08-10T11:17:35.909Z,20.50
2018-08-10T11:21:38.996Z,20.80
2018-08-10T11:25:42.309Z,21.10
2018-08-10T11:29:45.280Z,21.40
2018-08-10T11:33:48.387Z,21.70
2018-08-10T11:37:51.460Z,22.20
2018-08-10T11:41:54.580Z,22.70
2018-08-10T11:45:57.651Z,23.00
2018-08-10T11:50:00.810Z,23.00
2018-08-10T11:54:04.024Z,23.10
2018-08-10T11:58:07.134Z,23.10
2018-08-10T12:02:10.230Z,23.00
2018-08-10T12:06:13.500Z,22.90
2018-08-10T12:10:16.518Z,22.80
2018-08-10T12:14:19.724Z,22.80
2018-08-10T12:18:22.808Z,22.50
2018-08-10T12:22:25.944Z,22.20
2018-08-10T12:26:29.023Z,22.10
2018-08-10T12:30:32.144Z,21.90
2018-08-10T12:34:35.212Z,21.70
2018-08-10T12:38:39.196Z,21.50
2018-08-10T12:42:42.264Z,21.30
2018-08-10T12:46:45.392Z,21.00
2018-08-10T12:50:48.558Z,20.80
2018-08-10T12:54:51.980Z,20.80
2018-08-10T12:58:55.107Z,20.80
2018-08-10T13:02:58.259Z,21.00
2018-08-10T13:07:01.308Z,21.00
2018-08-10T13:11:04.436Z,20.80
2018-08-10T13:15:08.904Z,20.40
2018-08-10T13:19:12.012Z,20.00
2018-08-10T13:23:15.079Z,19.70
2018-08-10T13:27:18.278Z,19.50
2018-08-10T13:31:21.339Z,19.70
2018-08-10T13:35:24.637Z,20.20
2018-08-10T13:39:27.798Z,20.80
2018-08-10T13:43:31.604Z,21.10
2018-08-10T13:47:34.660Z,21.20
2018-08-10T13:51:37.776Z,21.30
2018-08-10T13:55:41.080Z,21.40
2018-08-10T13:59:44.268Z,21.60
2018-08-10T14:03:47.348Z,21.70
2018-08-10T14:07:50.859Z,21.60
2018-08-10T14:11:53.927Z,21.50
2018-08-10T14:15:57.174Z,21.50
2018-08-10T14:20:00.152Z,21.50
2018-08-10T14:24:03.428Z,21.50
2018-08-10T14:28:06.505Z,21.60
2018-08-10T14:32:10.440Z,21.70
2018-08-10T14:36:13.516Z,21.70
2018-08-10T14:40:16.631Z,21.70
2018-08-10T14:44:19.711Z,21.80
2018-08-10T14:48:22.848Z,21.90
2018-08-10T14:52:25.917Z,21.90
2018-08-10T14:56:29.359Z,22.00
2018-08-10T15:00:32.466Z,22.10
2018-08-10T15:04:35.596Z,22.10
2018-08-10T15:08:38.661Z,22.00
2018-08-10T15:12:42.135Z,22.10
2018-08-10T15:16:44.836Z,22.40
2018-08-10T15:20:47.972Z,22.40
2018-08-10T15:24:51.061Z,22.40
2018-08-10T15:28:54.160Z,22.20
2018-08-10T15:32:57.233Z,22.20
2018-08-10T15:37:00.425Z,22.30
2018-08-10T15:41:03.493Z,22.30
2018-08-10T15:45:08.943Z,22.20
2018-08-10T15:53:14.928Z,22.00
2018-08-10T15:57:18.320Z,22.00
2018-08-10T16:01:21.683Z,21.80
2018-08-10T16:05:24.764Z,21.70
2018-08-10T16:09:27.904Z,21.50
2018-08-10T16:17:34.214Z,21.50
2018-08-10T16:21:37.292Z,21.50
2018-08-10T16:25:40.472Z,21.50
2018-08-10T16:29:43.610Z,21.50
2018-08-10T16:33:46.722Z,21.60
2018-08-10T16:37:49.816Z,21.70
2018-08-10T16:41:52.939Z,21.70
2018-08-10T16:45:56.016Z,21.60
2018-08-10T16:49:59.128Z,21.50
2018-08-10T16:54:02.220Z,21.30
2018-08-10T16:58:05.510Z,21.30
2018-08-10T17:02:08.923Z,21.20
2018-08-10T17:06:12.050Z,21.00
2018-08-10T17:10:15.125Z,20.90
2018-08-10T17:14:18.333Z,20.70
2018-08-10T17:18:21.415Z,20.50
2018-08-10T17:22:24.604Z,20.40
2018-08-10T17:26:27.724Z,20.30
2018-08-10T17:30:30.892Z,20.30
2018-08-10T17:34:33.967Z,20.30
2018-08-10T17:38:37.132Z,20.40
2018-08-10T17:42:40.228Z,20.20
2018-08-10T17:46:43.398Z,20.20
2018-08-10T17:50:46.660Z,20.20
2018-08-10T17:54:49.917Z,20.20
2018-08-10T17:58:53.090Z,20.20
2018-08-10T18:02:56.212Z,20.20
2018-08-10T18:06:59.283Z,20.20
2018-08-10T18:11:02.416Z,20.20
2018-08-10T18:15:07.243Z,20.20
2018-08-10T18:19:10.715Z,20.30
2018-08-10T18:23:13.725Z,20.20
2018-08-10T18:27:16.834Z,20.20
2018-08-10T18:31:19.906Z,20.10
2018-08-10T18:35:23.119Z,20.10
2018-08-10T18:39:26.429Z,20.00
2018-08-10T18:43:29.517Z,19.90
2018-08-10T18:47:32.668Z,19.90
2018-08-10T18:51:35.735Z,19.90
2018-08-10T18:55:38.935Z,19.80
2018-08-10T18:59:42.192Z,19.80
2018-08-10T19:03:45.385Z,19.70
2018-08-10T19:07:48.872Z,19.70
2018-08-10T19:11:51.971Z,19.60
2018-08-10T19:15:55.351Z,19.60
2018-08-10T19:19:58.647Z,19.50
2018-08-10T19:24:01.861Z,19.50
2018-08-10T19:28:04.963Z,19.50
2018-08-10T19:32:08.090Z,19.60
2018-08-10T19:36:11.175Z,19.60
2018-08-10T19:40:15.616Z,19.40
2018-08-10T19:44:18.692Z,19.30
2018-08-10T19:48:21.954Z,19.10
2018-08-10T19:52:24.973Z,18.90
2018-08-10T19:56:28.072Z,18.80
2018-08-10T20:00:31.148Z,18.60
2018-08-10T20:04:34.348Z,18.40
2018-08-10T20:08:37.426Z,18.30
2018-08-10T20:12:40.536Z,18.20
2018-08-10T20:16:43.610Z,17.90
2018-08-10T20:20:46.967Z,17.90
2018-08-10T20:24:50.328Z,17.70
2018-08-10T20:28:53.532Z,17.60
2018-08-10T20:32:56.616Z,17.50
2018-08-10T20:36:59.924Z,17.40
2018-08-10T20:41:03.001Z,17.40
2018-08-10T20:45:06.685Z,17.30
2018-08-10T20:49:09.772Z,17.30
2018-08-10T20:53:12.887Z,17.20
2018-08-10T20:57:15.983Z,17.20
2018-08-10T21:01:19.131Z,17.20
2018-08-10T21:05:23.088Z,17.20
2018-08-10T21:09:26.185Z,17.20
2018-08-10T21:13:29.263Z,17.20
2018-08-10T21:17:32.503Z,17.20
2018-08-10T21:21:35.688Z,17.20
2018-08-10T21:25:38.885Z,17.10
2018-08-10T21:29:42.058Z,17.10
2018-08-10T21:33:45.284Z,17.00
2018-08-10T21:37:48.484Z,16.90
2018-08-10T21:41:51.556Z,16.80
2018-08-10T21:45:54.632Z,16.60
2018-08-10T21:49:57.766Z,16.50
2018-08-10T21:54:00.868Z,16.30
2018-08-10T21:58:04.013Z,16.10
2018-08-10T22:02:08.778Z,16.00
2018-08-10T22:06:12.004Z,15.90
2018-08-10T22:10:15.088Z,15.80
2018-08-10T22:14:23.753Z,15.80
2018-08-10T22:18:32.211Z,15.80
2018-08-10T22:22:35.519Z,15.80
2018-08-10T22:26:38.612Z,15.80
2018-08-10T22:30:41.811Z,15.80
2018-08-10T22:34:44.919Z,15.70
2018-08-10T22:38:48.056Z,15.70
2018-08-10T22:42:51.152Z,15.60
2018-08-10T22:46:54.289Z,15.60
2018-08-10T22:50:57.380Z,15.50
2018-08-10T22:55:00.517Z,15.50
2018-08-10T22:59:03.603Z,15.50
2018-08-10T23:03:06.776Z,15.50
2018-08-10T23:07:09.820Z,15.40
2018-08-10T23:11:13.036Z,15.40
2018-08-10T23:15:16.139Z,15.40
2018-08-10T23:19:19.272Z,15.30
2018-08-10T23:23:22.468Z,15.30
2018-08-10T23:27:25.821Z,15.30
2018-08-10T23:31:28.913Z,15.30
2018-08-10T23:35:32.249Z,15.30
2018-08-10T23:39:35.328Z,15.30
2018-08-10T23:43:38.477Z,15.30
2018-08-10T23:47:42.264Z,15.30
2018-08-10T23:51:45.392Z,15.20
2018-08-10T23:55:48.477Z,15.30
2018-08-10T23:59:51.613Z,15.30
